Terminal Aerodrome Forecast
Issued by NWS Salt Lake City, UT

Home | Current Version | Previous Version | Text Only | Print | Product List | Glossary On
Versions: 1 2 3 4 5 6 7 8 9 10 11 12 13 14 15 16 17 18 19 20 21 22 23 24 25 26 27 28 29 30
000
FTUS45 KSLC 291740
TAFSLC
TAF
KSLC 291740Z 2918/3024 33007KT P6SM FEW070 SCT110
     FM300300 15008KT P6SM SCT070 BKN110
     FM301500 16015G24KT P6SM VCSH SCT050 BKN070
     FM301900 19015G24KT P6SM -SHRA SCT030 BKN050
     FM302200 32020G32KT 5SM RA SCT015 BKN030=

USA.gov is the U.S. government's official web portal to all federal, state and local government web resources and services.